Time;durP1;ratioP1;P1;durP2;ratioP2;P2;SDS_P1;SDS_P2;PMS_P1;PMS_P2;Temp;Humidity;BMP_temperature;BMP_pressure;BME280_temperature;BME280_humidity;BME280_pressure;Samples;Min_cycle;Max_cycle;Signal;HPM_P1;HPM_P2
2023/04/23 00:01:42;;;;;;;6.97;2.97;;;11.30;99.90;;;;;;5111722;28;20452;-61
2023/04/23 00:04:08;;;;;;;8.80;2.60;;;11.30;99.90;;;;;;5113177;28;20055;-62
2023/04/23 00:06:35;;;;;;;9.70;3.10;;;11.30;99.90;;;;;;5113519;28;20048;-62
2023/04/23 00:09:02;;;;;;;6.95;2.42;;;11.30;99.90;;;;;;5113683;28;20063;-62
2023/04/23 00:11:29;;;;;;;7.13;2.65;;;11.30;99.90;;;;;;5111316;28;20036;-62
2023/04/23 00:13:56;;;;;;;9.98;1.98;;;11.30;99.90;;;;;;5113629;28;20066;-62
2023/04/23 00:16:23;;;;;;;6.13;2.00;;;11.40;99.90;;;;;;5113610;28;20104;-62
2023/04/23 00:18:50;;;;;;;7.45;2.00;;;11.30;99.90;;;;;;5113632;28;20059;-62
2023/04/23 00:21:17;;;;;;;6.53;1.73;;;11.30;99.90;;;;;;5113683;28;20118;-62
2023/04/23 00:23:44;;;;;;;9.63;2.22;;;11.40;99.90;;;;;;5113428;28;20044;-61
2023/04/23 00:26:11;;;;;;;6.07;1.90;;;11.40;99.90;;;;;;5113470;28;20060;-61
2023/04/23 00:28:37;;;;;;;6.78;1.70;;;11.40;99.90;;;;;;5113361;28;20085;-61
2023/04/23 00:31:04;;;;;;;7.15;1.98;;;11.40;99.90;;;;;;5112350;28;20047;-61
2023/04/23 00:33:31;;;;;;;4.85;1.75;;;11.30;99.90;;;;;;5113552;28;20077;-61
2023/04/23 00:35:58;;;;;;;6.07;1.63;;;11.30;99.90;;;;;;5113389;28;20071;-62
2023/04/23 00:38:25;;;;;;;6.40;1.88;;;11.30;99.90;;;;;;5111899;28;20044;-62
2023/04/23 00:40:52;;;;;;;7.03;2.05;;;11.30;99.90;;;;;;5092624;28;20097;-62
2023/04/23 00:43:19;;;;;;;5.15;1.50;;;11.30;99.90;;;;;;5093783;28;20060;-62
2023/04/23 00:45:46;;;;;;;6.15;1.05;;;11.30;99.90;;;;;;5094301;28;20044;-62
2023/04/23 00:48:12;;;;;;;7.82;1.73;;;11.30;99.90;;;;;;5093607;28;20047;-61
2023/04/23 00:50:39;;;;;;;7.30;1.88;;;11.30;99.90;;;;;;5093459;28;20051;-62
2023/04/23 00:53:06;;;;;;;7.55;1.80;;;11.30;99.90;;;;;;5093710;28;20048;-62
2023/04/23 00:55:33;;;;;;;9.38;1.50;;;11.20;99.90;;;;;;5093534;28;20486;-62
2023/04/23 00:57:59;;;;;;;11.05;2.03;;;11.20;99.90;;;;;;5093384;28;20490;-62
2023/04/23 01:00:26;;;;;;;10.95;2.00;;;11.20;99.90;;;;;;5097724;28;20047;-62
2023/04/23 01:02:53;;;;;;;9.95;1.58;;;11.20;99.90;;;;;;5112758;28;20464;-61
2023/04/23 01:05:20;;;;;;;9.02;2.50;;;11.20;99.90;;;;;;5111455;28;20032;-62
2023/04/23 01:07:47;;;;;;;7.63;1.80;;;11.20;99.90;;;;;;5113090;28;20055;-62
2023/04/23 01:10:14;;;;;;;10.27;2.47;;;11.20;99.90;;;;;;5112838;28;20375;-62
2023/04/23 01:12:40;;;;;;;8.50;2.20;;;11.20;99.90;;;;;;5113109;28;20039;-62
2023/04/23 01:15:07;;;;;;;7.78;2.00;;;11.20;99.90;;;;;;5116209;28;20448;-61
2023/04/23 01:17:34;;;;;;;12.20;2.25;;;11.20;99.90;;;;;;5115726;28;20134;-61
2023/04/23 01:20:01;;;;;;;10.90;2.30;;;11.20;99.90;;;;;;5117089;28;20040;-61
2023/04/23 01:22:28;;;;;;;11.57;2.70;;;11.20;99.90;;;;;;5117171;28;20445;-62
2023/04/23 01:24:55;;;;;;;10.57;2.95;;;11.20;99.90;;;;;;5116648;28;20085;-61
2023/04/23 01:27:23;;;;;;;10.57;2.10;;;11.20;99.90;;;;;;5111959;28;20078;-60
2023/04/23 01:29:50;;;;;;;11.88;2.30;;;11.20;99.90;;;;;;5116705;28;20089;-61
2023/04/23 01:32:17;;;;;;;10.95;2.10;;;11.20;99.90;;;;;;5116608;28;20176;-62
2023/04/23 01:34:44;;;;;;;6.78;1.70;;;11.20;99.90;;;;;;5116900;28;20047;-61
2023/04/23 01:37:10;;;;;;;7.32;2.10;;;11.10;99.90;;;;;;5115431;28;20130;-61
2023/04/23 01:39:37;;;;;;;8.40;1.85;;;11.10;99.90;;;;;;5116602;27;20075;-61
2023/04/23 01:42:05;;;;;;;8.57;1.70;;;11.10;99.90;;;;;;5116572;27;20092;-61
2023/04/23 01:44:32;;;;;;;8.75;1.95;;;11.10;99.90;;;;;;5116583;28;20063;-61
2023/04/23 01:46:59;;;;;;;7.43;1.75;;;11.10;99.90;;;;;;5116410;28;20040;-61
2023/04/23 01:49:26;;;;;;;6.95;1.70;;;11.10;99.90;;;;;;5096950;28;20032;-61
2023/04/23 01:51:52;;;;;;;7.18;1.52;;;11.10;99.90;;;;;;5102382;28;20135;-61
2023/04/23 01:54:19;;;;;;;9.40;1.60;;;11.10;99.90;;;;;;5096794;28;20071;-61
2023/04/23 01:56:48;;;;;;;6.55;1.55;;;11.00;99.90;;;;;;5096137;28;20070;-62
2023/04/23 01:59:15;;;;;;;7.38;1.50;;;11.10;99.90;;;;;;5111987;28;20491;-61
2023/04/23 02:01:42;;;;;;;8.35;1.90;;;11.10;99.90;;;;;;5096802;28;20132;-62
2023/04/23 02:04:09;;;;;;;9.95;1.40;;;11.10;99.90;;;;;;5096637;28;20119;-60
2023/04/23 02:06:36;;;;;;;10.20;1.80;;;11.10;99.90;;;;;;5096567;28;20047;-61
2023/04/23 02:09:03;;;;;;;6.38;1.58;;;11.10;99.90;;;;;;5101810;28;20039;-61
2023/04/23 02:11:30;;;;;;;6.13;1.00;;;11.20;99.90;;;;;;5095376;28;20071;-61
2023/04/23 02:13:56;;;;;;;11.45;2.00;;;11.10;99.90;;;;;;5096203;28;20475;-61
2023/04/23 02:16:23;;;;;;;7.65;1.55;;;11.10;99.90;;;;;;5094902;28;20040;-61
2023/04/23 02:18:51;;;;;;;6.35;1.67;;;11.10;99.90;;;;;;5096044;28;20115;-61
2023/04/23 02:21:17;;;;;;;6.68;1.63;;;11.20;99.90;;;;;;5094959;28;20093;-61
2023/04/23 02:23:44;;;;;;;8.75;1.58;;;11.10;99.90;;;;;;5096381;28;20082;-61
2023/04/23 02:26:11;;;;;;;9.50;1.85;;;11.10;99.90;;;;;;5095324;28;20062;-60
2023/04/23 02:28:37;;;;;;;8.98;1.75;;;11.10;99.90;;;;;;5109026;28;20031;-59
2023/04/23 02:31:05;;;;;;;8.15;2.05;;;11.10;99.90;;;;;;5110482;28;20036;-61
2023/04/23 02:33:32;;;;;;;10.73;1.83;;;11.10;99.90;;;;;;5115469;28;20042;-61
2023/04/23 02:35:58;;;;;;;12.02;1.98;;;11.10;99.90;;;;;;5115660;28;20043;-61
2023/04/23 02:38:25;;;;;;;8.60;2.13;;;11.10;99.90;;;;;;5115559;28;20084;-61
2023/04/23 02:40:52;;;;;;;11.55;2.30;;;11.10;99.90;;;;;;5115442;28;20051;-61
2023/04/23 02:43:19;;;;;;;14.52;2.40;;;11.10;99.90;;;;;;5115352;28;20123;-60
2023/04/23 02:45:45;;;;;;;13.68;2.55;;;11.10;99.90;;;;;;5114043;28;20104;-59
2023/04/23 02:48:12;;;;;;;7.65;2.38;;;11.10;99.90;;;;;;5107637;28;20043;-60
2023/04/23 02:50:39;;;;;;;12.02;2.40;;;11.10;99.90;;;;;;5115077;28;20040;-60
2023/04/23 02:53:07;;;;;;;8.73;2.42;;;11.10;99.90;;;;;;5100955;28;20123;-60
2023/04/23 02:55:33;;;;;;;10.90;2.25;;;11.10;99.90;;;;;;5095670;28;20051;-60
2023/04/23 02:58:00;;;;;;;13.98;2.70;;;11.10;99.90;;;;;;5107526;28;20075;-60
2023/04/23 03:00:28;;;;;;;10.48;2.10;;;11.10;99.90;;;;;;5094232;28;20176;-62
2023/04/23 03:02:55;;;;;;;8.48;2.22;;;11.10;99.90;;;;;;5101576;28;20395;-61
2023/04/23 03:05:22;;;;;;;8.13;2.25;;;11.10;99.90;;;;;;5103885;28;20078;-61
2023/04/23 03:07:49;;;;;;;9.55;2.22;;;11.00;99.90;;;;;;5103949;28;20040;-59
2023/04/23 03:10:15;;;;;;;8.18;1.75;;;11.00;99.90;;;;;;5094791;28;20198;-61
2023/04/23 03:12:42;;;;;;;8.82;1.90;;;11.00;99.90;;;;;;5095099;28;20558;-60
2023/04/23 03:15:10;;;;;;;8.70;1.80;;;11.00;99.90;;;;;;5094007;28;20138;-60
2023/04/23 03:17:37;;;;;;;8.65;1.70;;;11.00;99.90;;;;;;5096829;28;20044;-60
2023/04/23 03:20:06;;;;;;;6.00;1.48;;;11.00;99.90;;;;;;5103388;28;20514;-60
2023/04/23 03:22:33;;;;;;;8.77;2.00;;;11.00;99.90;;;;;;5093699;28;20040;-60
2023/04/23 03:25:00;;;;;;;7.25;1.77;;;11.00;99.90;;;;;;5094003;28;20135;-61
2023/04/23 03:27:26;;;;;;;13.18;2.10;;;11.00;99.90;;;;;;5113337;28;20067;-60
2023/04/23 03:29:54;;;;;;;12.65;2.20;;;10.90;99.90;;;;;;5100557;28;20105;-61
2023/04/23 03:32:20;;;;;;;7.38;1.75;;;10.90;99.90;;;;;;5092954;28;20040;-61
2023/04/23 03:34:47;;;;;;;10.10;1.95;;;10.90;99.90;;;;;;5093579;28;20078;-61
2023/04/23 03:37:14;;;;;;;9.75;1.92;;;10.90;99.90;;;;;;5093738;28;20131;-61
2023/04/23 03:39:41;;;;;;;9.90;1.60;;;10.80;99.90;;;;;;5093356;28;20040;-61
2023/04/23 03:42:09;;;;;;;6.80;2.20;;;10.80;99.90;;;;;;5093440;28;20036;-60
2023/04/23 03:44:37;;;;;;;9.07;2.05;;;10.90;99.90;;;;;;5093427;28;20044;-61
2023/04/23 03:47:04;;;;;;;7.60;2.00;;;10.90;99.90;;;;;;5093386;28;20380;-61
2023/04/23 03:49:32;;;;;;;9.20;2.15;;;10.90;99.90;;;;;;5093091;28;20525;-62
2023/04/23 03:51:59;;;;;;;12.80;2.58;;;10.90;99.90;;;;;;5093139;28;20039;-61
2023/04/23 03:54:27;;;;;;;8.18;2.53;;;10.90;99.90;;;;;;5112660;28;20063;-61
2023/04/23 03:57:08;;;;;;;9.63;1.95;;;10.90;99.90;;;;;;5112385;28;20051;-61
2023/04/23 03:59:38;;;;;;;15.45;2.67;;;10.90;99.90;;;;;;5112657;28;20044;-61
2023/04/23 04:02:05;;;;;;;10.48;2.15;;;10.90;99.90;;;;;;5109250;28;20043;-58
2023/04/23 04:04:32;;;;;;;12.13;2.42;;;10.90;99.90;;;;;;5111984;28;20122;-61
2023/04/23 04:06:59;;;;;;;10.10;3.15;;;10.80;99.90;;;;;;5112367;28;20047;-61
2023/04/23 04:09:26;;;;;;;13.68;2.60;;;10.80;99.90;;;;;;5113547;28;20061;-60
2023/04/23 04:11:53;;;;;;;13.55;1.92;;;10.80;99.90;;;;;;5112692;28;20039;-61
2023/04/23 04:14:20;;;;;;;9.50;2.10;;;10.80;99.90;;;;;;5112521;28;20444;-61
2023/04/23 04:16:46;;;;;;;10.80;2.10;;;10.80;99.90;;;;;;5113725;28;20101;-61
2023/04/23 04:19:13;;;;;;;13.13;1.90;;;10.80;99.90;;;;;;5113788;28;20067;-61
2023/04/23 04:21:40;;;;;;;10.68;2.50;;;10.80;99.90;;;;;;5113408;28;20056;-61
2023/04/23 04:24:07;;;;;;;8.48;2.20;;;10.80;99.90;;;;;;5112056;28;20500;-60
2023/04/23 04:26:34;;;;;;;6.28;2.00;;;10.80;99.90;;;;;;5113664;28;20390;-61
2023/04/23 04:29:01;;;;;;;12.95;2.67;;;10.80;99.90;;;;;;5105814;28;20409;-60
2023/04/23 04:31:27;;;;;;;9.07;2.25;;;10.80;99.90;;;;;;5112034;28;20105;-62
2023/04/23 04:33:54;;;;;;;12.43;2.60;;;10.80;99.90;;;;;;5113666;28;20106;-60
2023/04/23 04:36:23;;;;;;;9.25;2.22;;;10.80;99.90;;;;;;5113248;28;20490;-61
2023/04/23 04:38:57;;;;;;;12.77;2.58;;;10.70;99.90;;;;;;5113169;28;20387;-60
2023/04/23 04:41:24;;;;;;;11.23;2.28;;;10.70;99.90;;;;;;5112362;28;20051;-60
2023/04/23 04:43:51;;;;;;;9.77;2.28;;;10.70;99.90;;;;;;5112520;28;20127;-60
2023/04/23 04:46:21;;;;;;;10.45;2.67;;;10.60;99.90;;;;;;5112596;28;20175;-60
2023/04/23 04:48:47;;;;;;;9.93;2.53;;;10.60;99.90;;;;;;5112126;28;20044;-60
2023/04/23 04:51:14;;;;;;;14.27;2.60;;;10.60;99.90;;;;;;5112475;28;20039;-61
2023/04/23 04:53:41;;;;;;;14.80;2.60;;;10.60;99.90;;;;;;5112588;28;20043;-60
2023/04/23 04:56:08;;;;;;;12.05;2.13;;;10.60;99.90;;;;;;5112501;28;20043;-60
2023/04/23 04:58:35;;;;;;;11.77;2.28;;;10.60;99.90;;;;;;5112109;28;20419;-61
2023/04/23 05:01:01;;;;;;;10.57;2.58;;;10.60;99.90;;;;;;5111599;28;20048;-59
2023/04/23 05:03:28;;;;;;;15.65;3.00;;;10.60;99.90;;;;;;5111618;28;20043;-60
2023/04/23 05:05:57;;;;;;;13.50;2.65;;;10.60;99.90;;;;;;5111987;28;20035;-60
2023/04/23 05:08:24;;;;;;;9.73;2.47;;;10.60;99.90;;;;;;5112205;28;20039;-60
2023/04/23 05:10:50;;;;;;;10.10;2.25;;;10.60;99.90;;;;;;5111913;28;20035;-58
2023/04/23 05:13:17;;;;;;;9.82;2.45;;;10.60;99.90;;;;;;5112099;28;20039;-61
2023/04/23 05:15:44;;;;;;;13.55;3.10;;;10.60;99.90;;;;;;5112881;28;20043;-60
2023/04/23 05:18:11;;;;;;;12.20;2.20;;;10.60;99.90;;;;;;5112948;28;20420;-60
2023/04/23 05:20:37;;;;;;;13.32;2.45;;;10.60;99.90;;;;;;5112718;28;20131;-60
2023/04/23 05:23:04;;;;;;;13.50;2.58;;;10.60;99.90;;;;;;5112715;28;20549;-63
2023/04/23 05:25:33;;;;;;;15.20;2.92;;;10.60;99.90;;;;;;5113182;28;20096;-60
2023/04/23 05:28:00;;;;;;;10.98;2.38;;;10.60;99.90;;;;;;5113386;28;20036;-61
2023/04/23 05:30:27;;;;;;;10.50;2.35;;;10.60;99.90;;;;;;5111449;28;20367;-59
2023/04/23 05:32:53;;;;;;;11.25;2.38;;;10.60;99.90;;;;;;5109512;28;20097;-62
2023/04/23 05:35:20;;;;;;;11.35;2.45;;;10.60;99.90;;;;;;5112717;28;20036;-61
2023/04/23 05:37:47;;;;;;;15.25;2.78;;;10.60;99.90;;;;;;5113215;28;20077;-61
2023/04/23 05:40:14;;;;;;;13.02;2.58;;;10.60;99.90;;;;;;5112908;28;20032;-62
2023/04/23 05:42:41;;;;;;;13.23;2.38;;;10.60;99.90;;;;;;5111874;28;20092;-62
2023/04/23 05:45:07;;;;;;;14.80;2.85;;;10.60;99.90;;;;;;5110871;28;20395;-61
2023/04/23 05:47:35;;;;;;;14.57;2.80;;;10.60;99.90;;;;;;5112789;28;20551;-61
2023/04/23 05:50:01;;;;;;;12.10;2.55;;;10.60;99.90;;;;;;5112780;28;20089;-61
2023/04/23 05:52:32;;;;;;;13.73;2.40;;;10.60;99.90;;;;;;5112718;28;20044;-61
2023/04/23 05:54:59;;;;;;;10.02;2.13;;;10.60;99.90;;;;;;5113003;28;20439;-61
2023/04/23 05:57:25;;;;;;;12.38;2.40;;;10.60;99.90;;;;;;5112625;28;20070;-61
2023/04/23 05:59:52;;;;;;;9.98;2.08;;;10.60;99.90;;;;;;5112798;28;20047;-61
2023/04/23 06:02:19;;;;;;;12.13;2.13;;;10.60;99.90;;;;;;5116330;28;20444;-61
2023/04/23 06:04:49;;;;;;;9.32;2.22;;;10.70;99.90;;;;;;5116354;28;20096;-61
2023/04/23 06:07:16;;;;;;;9.55;2.35;;;10.70;99.90;;;;;;5116552;28;20096;-61
2023/04/23 06:09:43;;;;;;;13.07;2.55;;;10.70;99.90;;;;;;5116238;28;20101;-61
2023/04/23 06:12:10;;;;;;;9.90;2.47;;;10.80;99.90;;;;;;5116238;28;20110;-62
2023/04/23 06:14:37;;;;;;;9.38;2.17;;;10.80;99.90;;;;;;5114877;28;20086;-61
2023/04/23 06:17:03;;;;;;;13.35;2.65;;;10.90;99.90;;;;;;5116431;28;20097;-60
2023/04/23 06:19:30;;;;;;;10.68;2.10;;;10.90;99.90;;;;;;5116267;28;20040;-60
2023/04/23 06:21:57;;;;;;;10.13;1.85;;;10.90;99.90;;;;;;5116186;27;20050;-60
2023/04/23 06:24:24;;;;;;;13.98;2.20;;;11.00;99.90;;;;;;5115934;28;20039;-61
2023/04/23 06:26:50;;;;;;;13.70;2.50;;;11.10;99.90;;;;;;5116172;28;20078;-61
2023/04/23 06:29:19;;;;;;;12.68;2.38;;;11.10;99.90;;;;;;5114725;28;20104;-60
2023/04/23 06:31:51;;;;;;;10.35;2.30;;;11.10;99.90;;;;;;5108669;28;20042;-60
2023/04/23 06:34:18;;;;;;;9.63;2.10;;;11.20;99.90;;;;;;5115806;28;20063;-60
2023/04/23 06:36:45;;;;;;;8.60;1.70;;;11.20;99.90;;;;;;5115791;28;20114;-61
2023/04/23 06:39:12;;;;;;;11.98;2.83;;;11.20;99.90;;;;;;5115904;28;20521;-60
2023/04/23 06:41:38;;;;;;;9.63;2.22;;;11.20;99.90;;;;;;5115558;28;20118;-60
2023/04/23 06:44:12;;;;;;;9.18;2.15;;;11.30;99.90;;;;;;5114513;28;20120;-60
2023/04/23 06:46:46;;;;;;;9.45;2.08;;;11.30;99.90;;;;;;5115765;28;20490;-61
2023/04/23 06:49:13;;;;;;;9.88;1.77;;;11.30;99.90;;;;;;5115826;28;20066;-60
2023/04/23 06:51:39;;;;;;;8.75;2.05;;;11.40;99.90;;;;;;5115410;28;20047;-61
2023/04/23 06:54:07;;;;;;;9.18;2.33;;;11.40;99.90;;;;;;5115498;28;20051;-60
2023/04/23 06:56:33;;;;;;;9.57;2.25;;;11.50;99.90;;;;;;5115303;28;20047;-61
2023/04/23 06:59:00;;;;;;;9.80;1.80;;;11.50;99.90;;;;;;5115369;28;20376;-61
2023/04/23 07:01:28;;;;;;;9.75;2.25;;;11.50;99.90;;;;;;5113768;28;20048;-61
2023/04/23 07:03:55;;;;;;;10.55;1.80;;;11.50;99.90;;;;;;5114018;28;20134;-61
2023/04/23 07:06:21;;;;;;;8.73;1.80;;;11.50;99.90;;;;;;5110432;28;20040;-60
2023/04/23 07:08:48;;;;;;;11.80;1.90;;;11.60;99.90;;;;;;5095877;28;20043;-60
2023/04/23 07:11:15;;;;;;;9.48;2.20;;;11.60;99.90;;;;;;5095155;28;20470;-61
2023/04/23 07:13:42;;;;;;;10.75;2.15;;;11.70;99.90;;;;;;5095724;28;20078;-61
2023/04/23 07:16:08;;;;;;;9.32;2.10;;;11.80;99.90;;;;;;5095552;28;20051;-61
2023/04/23 07:18:35;;;;;;;8.30;1.83;;;11.90;99.90;;;;;;5095677;28;20085;-60
2023/04/23 07:21:02;;;;;;;7.85;1.90;;;11.90;99.90;;;;;;5095393;28;20072;-61
2023/04/23 07:23:29;;;;;;;11.10;2.30;;;12.00;99.90;;;;;;5095387;28;20452;-60
2023/04/23 07:25:55;;;;;;;9.65;2.20;;;11.90;99.90;;;;;;5106094;28;20035;-58
2023/04/23 07:28:22;;;;;;;9.68;2.08;;;11.90;99.90;;;;;;5114708;28;20058;-60
2023/04/23 07:30:49;;;;;;;8.70;2.30;;;12.00;99.90;;;;;;5113440;28;20071;-59
2023/04/23 07:33:16;;;;;;;7.47;2.22;;;12.00;99.90;;;;;;5101001;28;20104;-61
2023/04/23 07:35:42;;;;;;;6.38;1.90;;;12.10;99.90;;;;;;5114650;28;20050;-60
2023/04/23 07:38:09;;;;;;;8.75;2.85;;;12.20;99.90;;;;;;5114578;28;20059;-61
2023/04/23 07:40:36;;;;;;;9.82;2.08;;;12.20;99.90;;;;;;5114625;28;20553;-57
2023/04/23 07:43:03;;;;;;;9.20;2.17;;;12.20;99.90;;;;;;5114411;28;20059;-61
2023/04/23 07:45:30;;;;;;;8.95;1.90;;;12.40;99.90;;;;;;5114429;28;20134;-60
2023/04/23 07:47:57;;;;;;;9.23;1.90;;;12.40;99.90;;;;;;5113562;28;20057;-61
2023/04/23 07:50:24;;;;;;;9.25;2.00;;;12.40;99.90;;;;;;5115006;28;20444;-61
2023/04/23 07:52:51;;;;;;;9.65;2.10;;;12.40;99.90;;;;;;5115200;28;20502;-61
2023/04/23 07:55:19;;;;;;;8.45;1.83;;;12.50;99.90;;;;;;5115104;28;20044;-60
2023/04/23 07:57:46;;;;;;;9.55;1.88;;;12.50;99.90;;;;;;5114814;28;20084;-61
2023/04/23 08:00:13;;;;;;;10.25;2.03;;;12.50;99.90;;;;;;5115034;28;20119;-61
2023/04/23 08:02:40;;;;;;;6.50;1.85;;;12.50;99.90;;;;;;5115108;28;20145;-60
2023/04/23 08:05:06;;;;;;;7.72;2.00;;;12.50;99.90;;;;;;5113812;28;20032;-58
2023/04/23 08:07:34;;;;;;;8.68;1.95;;;12.50;99.90;;;;;;5114529;28;20069;-61
2023/04/23 08:10:04;;;;;;;6.82;2.10;;;12.60;99.90;;;;;;5114442;28;20059;-60
2023/04/23 08:12:33;;;;;;;8.55;2.33;;;12.60;99.90;;;;;;5114180;28;20047;-60
2023/04/23 08:15:00;;;;;;;9.15;2.17;;;12.70;99.90;;;;;;5114122;28;20040;-61
2023/04/23 08:17:33;;;;;;;8.45;1.67;;;12.70;99.90;;;;;;5112767;28;20575;-60
2023/04/23 08:20:00;;;;;;;9.35;1.92;;;12.70;99.90;;;;;;5113852;28;20047;-61
2023/04/23 08:22:27;;;;;;;8.48;2.40;;;12.70;99.90;;;;;;5113878;28;20047;-60
2023/04/23 08:24:54;;;;;;;9.40;2.10;;;12.70;99.90;;;;;;5112866;28;20047;-60
2023/04/23 08:27:21;;;;;;;8.65;1.75;;;12.70;99.90;;;;;;5113621;28;20440;-60
2023/04/23 08:29:48;;;;;;;11.80;2.25;;;12.70;99.90;;;;;;5113751;28;20031;-63
2023/04/23 08:32:15;;;;;;;10.07;2.38;;;12.70;99.90;;;;;;5113753;28;20035;-60
2023/04/23 08:34:42;;;;;;;10.40;2.67;;;12.70;99.90;;;;;;5112057;28;20078;-59
2023/04/23 08:37:09;;;;;;;8.88;2.40;;;12.70;99.90;;;;;;5113445;28;20109;-60
2023/04/23 08:39:52;;;;;;;10.25;2.20;;;12.80;99.90;;;;;;5113683;28;20054;-61
2023/04/23 08:42:19;;;;;;;9.77;2.15;;;12.90;99.90;;;;;;5113591;28;20100;-60
2023/04/23 08:44:46;;;;;;;8.82;2.15;;;12.90;99.90;;;;;;5113434;28;20047;-61
2023/04/23 08:47:13;;;;;;;10.48;2.25;;;12.90;99.90;;;;;;5113361;28;20040;-61
2023/04/23 08:49:40;;;;;;;10.98;1.98;;;12.80;99.90;;;;;;5113246;27;20478;-61
2023/04/23 08:52:07;;;;;;;10.82;2.15;;;12.80;99.90;;;;;;5112304;28;20042;-61
2023/04/23 08:54:33;;;;;;;10.55;2.30;;;12.90;99.90;;;;;;5113480;28;20040;-62
2023/04/23 08:57:00;;;;;;;8.45;2.17;;;12.80;99.90;;;;;;5113088;28;20109;-60
2023/04/23 08:59:27;;;;;;;7.20;2.20;;;12.90;99.90;;;;;;5113419;28;20522;-60
2023/04/23 09:01:54;;;;;;;7.50;2.42;;;12.90;99.90;;;;;;5113337;28;20048;-60
2023/04/23 09:04:22;;;;;;;8.27;2.20;;;12.90;99.90;;;;;;5113295;28;20112;-60
2023/04/23 09:06:49;;;;;;;10.27;2.20;;;12.90;99.90;;;;;;5113280;28;20119;-60
2023/04/23 09:09:22;;;;;;;8.93;1.83;;;12.90;99.90;;;;;;5113228;28;20052;-60
2023/04/23 09:11:49;;;;;;;8.10;2.15;;;13.00;99.90;;;;;;5093787;28;20518;-60
2023/04/23 09:14:18;;;;;;;9.23;1.98;;;13.00;99.90;;;;;;5093590;28;20036;-60
2023/04/23 09:16:45;;;;;;;7.35;1.98;;;13.10;99.90;;;;;;5093396;28;20487;-61
2023/04/23 09:19:12;;;;;;;6.93;1.75;;;13.20;99.90;;;;;;5093648;28;20097;-61
2023/04/23 09:21:39;;;;;;;7.80;2.15;;;13.20;99.90;;;;;;5093325;28;20048;-60
2023/04/23 09:24:06;;;;;;;9.57;1.75;;;13.30;99.90;;;;;;5106195;28;20044;-60
2023/04/23 09:26:34;;;;;;;6.40;1.75;;;13.30;99.90;;;;;;5093440;28;20032;-60
2023/04/23 09:29:01;;;;;;;7.07;1.80;;;13.30;99.90;;;;;;5105638;28;20070;-61
2023/04/23 09:31:27;;;;;;;6.85;1.73;;;13.30;99.90;;;;;;5093009;28;20044;-61
2023/04/23 09:33:54;;;;;;;7.15;2.05;;;13.30;99.90;;;;;;5093471;28;20040;-61
2023/04/23 09:36:25;;;;;;;6.43;1.70;;;13.20;99.90;;;;;;5096927;28;20040;-61
2023/04/23 09:38:51;;;;;;;9.27;1.92;;;13.10;99.90;;;;;;5110909;28;20050;-60
2023/04/23 09:41:18;;;;;;;6.47;1.80;;;13.10;99.90;;;;;;5097332;28;20047;-59
2023/04/23 09:43:45;;;;;;;6.40;1.90;;;13.00;99.90;;;;;;5117004;28;20110;-60
2023/04/23 09:46:11;;;;;;;5.25;1.45;;;13.00;99.90;;;;;;5116640;28;20470;-60
2023/04/23 09:48:38;;;;;;;9.18;1.88;;;13.00;99.90;;;;;;5117081;28;20070;-59
2023/04/23 09:51:05;;;;;;;6.50;1.77;;;13.00;99.90;;;;;;5116669;28;20117;-61
2023/04/23 09:53:32;;;;;;;6.57;1.40;;;12.90;99.90;;;;;;5116877;28;20039;-62
2023/04/23 09:55:58;;;;;;;6.30;1.60;;;13.00;99.90;;;;;;5116575;28;20108;-61
2023/04/23 09:58:25;;;;;;;6.05;1.63;;;12.90;99.90;;;;;;5116630;28;20048;-61
2023/04/23 10:00:54;;;;;;;8.95;2.45;;;12.90;99.90;;;;;;5116511;28;20047;-61
2023/04/23 10:03:21;;;;;;;9.07;2.80;;;12.90;99.90;;;;;;5116822;28;20048;-61
2023/04/23 10:05:48;;;;;;;7.75;1.95;;;12.80;99.90;;;;;;5116450;28;20474;-60
2023/04/23 10:08:27;;;;;;;5.97;1.60;;;12.90;99.90;;;;;;5116757;28;20510;-61
2023/04/23 10:10:53;;;;;;;6.22;1.90;;;13.00;99.90;;;;;;5116136;28;20044;-62
2023/04/23 10:13:40;;;;;;;5.35;1.60;;;13.00;99.90;;;;;;5116568;28;20401;-60
2023/04/23 10:16:08;;;;;;;7.90;1.77;;;13.20;99.90;;;;;;5116402;28;20479;-61
2023/04/23 10:18:49;;;;;;;5.40;1.60;;;13.10;99.90;;;;;;5116307;28;20054;-62
2023/04/23 10:21:16;;;;;;;6.53;2.00;;;13.20;99.90;;;;;;5114806;28;20473;-61
2023/04/23 10:23:43;;;;;;;5.35;1.67;;;13.30;99.90;;;;;;5116337;28;20040;-60
2023/04/23 10:26:09;;;;;;;2.63;0.80;;;13.40;99.90;;;;;;5116214;28;20044;-61
2023/04/23 10:28:36;;;;;;;3.08;1.02;;;13.50;99.90;;;;;;5116007;28;20044;-60
2023/04/23 10:31:03;;;;;;;2.75;0.90;;;13.50;99.90;;;;;;5114795;28;20066;-61
2023/04/23 10:33:30;;;;;;;5.32;1.20;;;13.50;99.90;;;;;;5116096;28;20055;-61
2023/04/23 10:36:11;;;;;;;3.78;0.90;;;13.60;99.90;;;;;;5116029;28;20050;-61
2023/04/23 10:38:38;;;;;;;4.13;1.10;;;13.60;99.90;;;;;;5096235;28;20497;-61
2023/04/23 10:41:20;;;;;;;5.55;0.98;;;13.60;99.90;;;;;;5095769;28;20047;-62
2023/04/23 10:43:47;;;;;;;2.72;0.88;;;13.70;99.90;;;;;;5095920;28;20102;-62
2023/04/23 10:46:14;;;;;;;3.00;0.93;;;13.70;99.90;;;;;;5095076;28;20036;-60
2023/04/23 10:48:41;;;;;;;4.57;0.93;;;13.80;99.90;;;;;;5099816;28;20040;-61
2023/04/23 10:51:07;;;;;;;3.80;0.90;;;13.90;99.90;;;;;;5095413;28;20059;-63
2023/04/23 10:53:54;;;;;;;3.63;0.90;;;13.80;99.90;;;;;;5099741;28;20085;-62
2023/04/23 10:56:21;;;;;;;3.13;0.98;;;13.80;99.90;;;;;;5095343;28;20449;-60
2023/04/23 10:58:48;;;;;;;2.47;0.80;;;13.80;99.90;;;;;;5100644;28;20081;-60
2023/04/23 11:01:15;;;;;;;4.82;1.23;;;13.80;99.90;;;;;;5114156;28;20051;-60
2023/04/23 11:03:42;;;;;;;4.00;1.30;;;13.70;99.90;;;;;;5115258;28;20482;-61
2023/04/23 11:06:10;;;;;;;4.30;1.00;;;13.60;99.90;;;;;;5115151;28;20062;-61
2023/04/23 11:08:37;;;;;;;1.73;0.60;;;13.60;99.90;;;;;;5115434;28;20101;-62
2023/04/23 11:11:04;;;;;;;3.03;0.80;;;13.50;99.90;;;;;;5115338;28;20036;-61
2023/04/23 11:13:31;;;;;;;6.80;1.00;;;13.40;99.90;;;;;;5115301;28;20042;-61
2023/04/23 11:15:57;;;;;;;6.38;1.40;;;13.40;99.90;;;;;;5114928;28;20067;-62
2023/04/23 11:18:24;;;;;;;5.25;2.10;;;13.20;99.90;;;;;;5113655;28;20043;-61
2023/04/23 11:20:51;;;;;;;4.63;2.20;;;12.70;99.90;;;;;;5115092;28;20095;-60
2023/04/23 11:23:18;;;;;;;6.47;2.70;;;12.50;99.90;;;;;;5113585;28;20049;-60
2023/04/23 11:25:44;;;;;;;5.45;2.17;;;12.30;99.90;;;;;;5114806;28;20119;-61
2023/04/23 11:28:11;;;;;;;4.72;2.20;;;12.30;99.90;;;;;;5114841;28;20042;-61
2023/04/23 11:30:38;;;;;;;5.25;2.30;;;12.30;99.90;;;;;;5115153;28;20123;-60
2023/04/23 11:33:05;;;;;;;5.07;2.10;;;12.30;99.90;;;;;;5114771;28;20036;-61
2023/04/23 11:35:38;;;;;;;5.50;2.30;;;12.40;99.90;;;;;;5112894;28;20050;-61
2023/04/23 11:38:05;;;;;;;7.18;2.10;;;12.50;99.90;;;;;;5114706;28;20044;-62
2023/04/23 11:40:33;;;;;;;3.25;2.08;;;12.60;99.90;;;;;;5114573;28;20075;-62
2023/04/23 11:43:03;;;;;;;4.25;1.77;;;12.70;99.90;;;;;;5114626;28;20047;-61
2023/04/23 11:45:29;;;;;;;5.38;2.00;;;12.70;99.90;;;;;;5114623;28;20047;-62
2023/04/23 11:47:57;;;;;;;3.53;1.75;;;12.70;99.90;;;;;;5114349;28;20139;-61
2023/04/23 11:50:24;;;;;;;5.45;1.92;;;12.80;99.90;;;;;;5112700;28;20067;-61
2023/04/23 11:52:51;;;;;;;5.53;1.77;;;12.80;99.90;;;;;;5113974;28;20043;-62
2023/04/23 11:55:18;;;;;;;5.55;2.13;;;12.90;99.90;;;;;;5113883;28;20031;-60
2023/04/23 11:57:47;;;;;;;4.03;1.95;;;12.90;99.90;;;;;;5113806;28;20047;-62
2023/04/23 12:00:15;;;;;;;4.07;1.67;;;12.80;99.90;;;;;;5113864;28;20131;-63
2023/04/23 12:02:41;;;;;;;5.10;2.40;;;12.80;99.90;;;;;;5113951;28;20048;-62
2023/04/23 12:05:08;;;;;;;3.08;1.30;;;12.70;99.90;;;;;;5113579;28;20058;-62
2023/04/23 12:07:35;;;;;;;3.28;1.70;;;12.60;99.90;;;;;;5113854;28;20461;-62
2023/04/23 12:10:02;;;;;;;5.07;1.90;;;12.60;99.90;;;;;;5114117;28;20040;-60
2023/04/23 12:12:29;;;;;;;3.50;1.65;;;12.60;99.90;;;;;;5113998;28;20040;-61
2023/04/23 12:14:56;;;;;;;4.78;1.70;;;12.60;99.90;;;;;;5113936;28;20036;-61
2023/04/23 12:17:22;;;;;;;3.80;1.55;;;12.60;99.90;;;;;;5113901;28;20122;-62
2023/04/23 12:19:49;;;;;;;5.00;1.48;;;12.50;99.90;;;;;;5113705;28;20046;-63
2023/04/23 12:22:16;;;;;;;2.55;1.58;;;12.30;99.90;;;;;;5113900;28;20039;-62
2023/04/23 12:24:43;;;;;;;2.97;1.42;;;12.20;99.90;;;;;;5113893;28;20074;-63
2023/04/23 12:27:10;;;;;;;5.07;1.60;;;12.20;99.90;;;;;;5113859;28;20047;-62
2023/04/23 12:29:36;;;;;;;2.60;1.30;;;12.30;99.90;;;;;;5113748;28;20097;-63
2023/04/23 12:32:03;;;;;;;2.90;1.55;;;12.40;99.90;;;;;;5113814;28;20047;-61
2023/04/23 12:34:30;;;;;;;3.58;1.45;;;12.70;99.90;;;;;;5106179;28;20063;-59
2023/04/23 12:36:57;;;;;;;4.95;1.88;;;12.60;99.90;;;;;;5113666;28;20096;-62
2023/04/23 12:39:23;;;;;;;2.70;1.55;;;12.70;99.90;;;;;;5113634;28;20043;-61
2023/04/23 12:41:51;;;;;;;3.40;1.80;;;12.80;99.90;;;;;;5113735;28;20494;-62
2023/04/23 12:44:17;;;;;;;3.63;1.95;;;12.90;99.90;;;;;;5113753;28;20050;-62